Latest  Newer  Older  Last 2 hours slideshow  Last 24 hours slideshow  Refresh every 5 minutes 
Current image  Latest image  Rain/snow radar  Cloud coverage sat images 

All time is UTC (add 2 hours to UTC in wintertime, 3 hours to UTC in DST for Latvia local time)

2021/10/25 22:50 EVRA 252250Z 19007KT CAVOK 04/02 Q1017 R18/090095 NOSIG
2021/10/25 22:50 EVLA 252250Z AUTO 23011KT 9999 BKN020/// BKN230/// 09/06 Q1016
2021/10/25 22:50 EVVA 252250Z AUTO 23012KT 9999 OVC024 10/08 Q1015
2021/10/25 22:50 EYKA 252250Z AUTO 18009KT 150V210 9999 NCD 05/M00 Q1020
2021/10/25 22:50 EYPA 252250Z 23007KT 180V280 CAVOK 10/06 Q1017
2021/10/25 22:50 EYSA 252250Z AUTO 20009KT 9999 FEW250/// 05/02 Q1018 NOSIG
2021/10/25 22:50 EYVI 252250Z 18010KT CAVOK 03/M01 Q1021 NOSIG
2021/10/25 15:20 EEKA 251520Z 21008KT 170V250 9999 OVC023 10/06 Q1014
2021/10/25 22:50 EEKE 252250Z AUTO 25006KT 200V290 9999NDV OVC020 09/06 Q1013

2021/10/25 22:50 EETN 252250Z 23010KT 9999 BKN018 OVC030 08/06 Q1012
2021/10/25 22:50 EETU 252250Z AUTO 22011KT 9999 NCD 05/02 Q1015
   RIGA AIRPORT     EVRA               56 55N  023 58E   10   X     T          6 LV
   LIEPAJA INTL     EVLA        26406  56 31N  021 06E    4   X                8 LV
   VENTPILS         EVVA               57 21N  021 33E    6   X                8 LV
   KAUNAS           EYKA               54 54N  023 55E   77   X     T          6 LT
   PALANGA INTL     EYPA               55 55N  021 03E   10   X                6 LT
   SIAULIAI INTL    EYSA               55 54N  023 24E  135   X     T          6 LT
   VILNIUS INTL     EYVI        26730  54 38N  025 17E  197   X     T          6 LT
   KARDLA           EEKA        26116  58 59N  022 50E    4   X                8 EE
   KURESSAARE       EEKE               58 14N  022 31E    4   X                8 EE
   PARNU            EEPU               58 25N  024 28E   14   X                8 EE
   TALLINN          EETN        26038  59 24N  024 49E   40   X     T          8 EE
   TARTU            EETU               58 19N  026 41E   67   X                8 EE